Etusivu
METAR-TAF:

METAR-TAF

Lentoasemat :

Ringkøbing-Skjern, Tanska

Leveyspiiri: 56-00N, Pituuspiiri: 008-21E, korkeus merenpinnasta: 5 m

Tämänhetkinen sää

Tämä raportti tehtiin 13 tuntia ja 51 minuuttia sitten, kello 13.50 UTC
Tuuli 14 kn luoteesta puuskistuen 25 kn:hen
Lämpötila 9°C
Kosteus 71%
Ilmanpaine 1026 hPa
Näkyvyys 10 km tai enemmän
Muutamia pilviä 2000 ft:n korkeudessa

METAR: EKVJ 091350Z 31014G25KT 9999 FEW020 09/04 Q1026

Aika: 05:41 (03:41 UTC)

Sääennuste

Tämä raportti tehtiin 18 tuntia ja 50 minuuttia sitten, kello 08.51 UTC
Ennuste voimassa 09. päivästä klo 09 UTC - 09. päivään klo 15 UTC
Tuuli 16 kn pohjoisen/luoteesta
Näkyvyys 10 km tai enemmän
Muutamia pilviä 2000 ft:n korkeudessa

TAF: EKVJ 090851Z 0909/0915 33016KT 9999 FEW020

Säähavainnot ja -ennusteet yli 4000 lentoasemalta (METAR- ja TAF-raportit).

Käytössä olevat sääasemat on merkitty karttaan keltaisilla ja punaisilla pisteillä.

Aseta hiiri pisteen päälle nähdäksesi sääaseman nimen.

Klikkaa sitten nähdäksesi säähavainnot ja -ennusteet.

Kartan vaihtaminen: klikkaa mustalla rastilla varustettuja vihreitä pisteitä, niin voit zoomata sisään; viivalla varustettua vihreää pistettä, niin voit zoomata ulos tai vihreitä nuolia, niin pääset viereisille kartoille.


METAR-TAF: